sensor_id;sensor_type;location;lat;lon;timestamp;P1;durP1;ratioP1;P2;durP2;ratioP2
4585;SDS011;2305;50.118;8.952;2023-02-26T00:02:02;3.63;;;2.27;;
4585;SDS011;2305;50.118;8.952;2023-02-26T00:04:33;7.80;;;1.97;;
4585;SDS011;2305;50.118;8.952;2023-02-26T00:07:02;3.93;;;2.07;;
4585;SDS011;2305;50.118;8.952;2023-02-26T00:09:31;3.63;;;2.27;;
4585;SDS011;2305;50.118;8.952;2023-02-26T00:12:01;5.70;;;2.20;;
4585;SDS011;2305;50.118;8.952;2023-02-26T00:14:30;3.53;;;1.97;;
4585;SDS011;2305;50.118;8.952;2023-02-26T00:19:53;4.20;;;1.60;;
4585;SDS011;2305;50.118;8.952;2023-02-26T00:22:24;5.43;;;2.70;;
4585;SDS011;2305;50.118;8.952;2023-02-26T00:24:53;3.03;;;2.10;;
4585;SDS011;2305;50.118;8.952;2023-02-26T00:27:22;5.30;;;3.40;;
4585;SDS011;2305;50.118;8.952;2023-02-26T00:29:51;3.17;;;2.00;;
4585;SDS011;2305;50.118;8.952;2023-02-26T00:32:22;4.73;;;2.10;;
4585;SDS011;2305;50.118;8.952;2023-02-26T00:34:51;3.63;;;2.00;;
4585;SDS011;2305;50.118;8.952;2023-02-26T00:37:22;2.40;;;1.77;;
4585;SDS011;2305;50.118;8.952;2023-02-26T00:40:02;4.27;;;1.57;;
4585;SDS011;2305;50.118;8.952;2023-02-26T00:42:43;3.70;;;2.07;;
4585;SDS011;2305;50.118;8.952;2023-02-26T00:45:11;3.60;;;2.00;;
4585;SDS011;2305;50.118;8.952;2023-02-26T00:47:44;2.80;;;1.97;;
4585;SDS011;2305;50.118;8.952;2023-02-26T00:50:20;2.20;;;2.00;;
4585;SDS011;2305;50.118;8.952;2023-02-26T00:53:02;4.00;;;2.17;;
4585;SDS011;2305;50.118;8.952;2023-02-26T00:55:38;2.73;;;1.93;;
4585;SDS011;2305;50.118;8.952;2023-02-26T00:58:07;3.10;;;1.87;;
4585;SDS011;2305;50.118;8.952;2023-02-26T01:00:35;3.50;;;1.90;;
4585;SDS011;2305;50.118;8.952;2023-02-26T01:03:03;4.50;;;1.90;;
4585;SDS011;2305;50.118;8.952;2023-02-26T01:05:32;3.90;;;1.83;;
4585;SDS011;2305;50.118;8.952;2023-02-26T01:08:01;3.13;;;1.80;;
4585;SDS011;2305;50.118;8.952;2023-02-26T01:10:38;7.47;;;2.00;;
4585;SDS011;2305;50.118;8.952;2023-02-26T01:13:09;11.13;;;3.00;;
4585;SDS011;2305;50.118;8.952;2023-02-26T01:15:38;3.37;;;2.03;;
4585;SDS011;2305;50.118;8.952;2023-02-26T01:18:15;4.27;;;2.73;;
4585;SDS011;2305;50.118;8.952;2023-02-26T01:20:48;3.00;;;2.00;;
4585;SDS011;2305;50.118;8.952;2023-02-26T01:23:21;7.10;;;2.00;;
4585;SDS011;2305;50.118;8.952;2023-02-26T01:25:52;4.63;;;2.03;;
4585;SDS011;2305;50.118;8.952;2023-02-26T01:28:26;3.77;;;1.90;;
4585;SDS011;2305;50.118;8.952;2023-02-26T01:30:56;6.90;;;2.07;;
4585;SDS011;2305;50.118;8.952;2023-02-26T01:33:28;3.07;;;2.10;;
4585;SDS011;2305;50.118;8.952;2023-02-26T01:36:00;5.73;;;2.07;;
4585;SDS011;2305;50.118;8.952;2023-02-26T01:38:35;3.53;;;2.00;;
4585;SDS011;2305;50.118;8.952;2023-02-26T01:41:12;7.87;;;2.50;;
4585;SDS011;2305;50.118;8.952;2023-02-26T01:43:52;5.67;;;2.00;;
4585;SDS011;2305;50.118;8.952;2023-02-26T01:46:51;2.30;;;1.77;;
4585;SDS011;2305;50.118;8.952;2023-02-26T01:49:27;6.87;;;2.20;;
4585;SDS011;2305;50.118;8.952;2023-02-26T01:51:56;2.10;;;1.80;;
4585;SDS011;2305;50.118;8.952;2023-02-26T01:54:28;3.30;;;2.53;;
4585;SDS011;2305;50.118;8.952;2023-02-26T01:56:58;4.50;;;2.00;;
4585;SDS011;2305;50.118;8.952;2023-02-26T01:59:32;2.90;;;1.63;;
4585;SDS011;2305;50.118;8.952;2023-02-26T02:02:04;3.80;;;2.00;;
4585;SDS011;2305;50.118;8.952;2023-02-26T02:04:34;4.40;;;2.07;;
4585;SDS011;2305;50.118;8.952;2023-02-26T02:07:03;8.00;;;2.43;;
4585;SDS011;2305;50.118;8.952;2023-02-26T02:09:32;6.13;;;1.80;;
4585;SDS011;2305;50.118;8.952;2023-02-26T02:12:09;5.57;;;2.50;;
4585;SDS011;2305;50.118;8.952;2023-02-26T02:14:53;2.10;;;1.83;;
4585;SDS011;2305;50.118;8.952;2023-02-26T02:17:33;5.57;;;1.93;;
4585;SDS011;2305;50.118;8.952;2023-02-26T02:20:17;3.27;;;1.50;;
4585;SDS011;2305;50.118;8.952;2023-02-26T02:23:00;2.27;;;1.30;;
4585;SDS011;2305;50.118;8.952;2023-02-26T02:25:39;3.87;;;1.90;;
4585;SDS011;2305;50.118;8.952;2023-02-26T02:28:35;1.87;;;1.63;;
4585;SDS011;2305;50.118;8.952;2023-02-26T02:31:14;4.50;;;1.50;;
4585;SDS011;2305;50.118;8.952;2023-02-26T02:33:48;3.77;;;1.40;;
4585;SDS011;2305;50.118;8.952;2023-02-26T02:36:31;3.90;;;1.67;;
4585;SDS011;2305;50.118;8.952;2023-02-26T02:39:05;4.30;;;1.43;;
4585;SDS011;2305;50.118;8.952;2023-02-26T02:41:37;4.57;;;1.73;;
4585;SDS011;2305;50.118;8.952;2023-02-26T02:44:10;4.60;;;2.30;;
4585;SDS011;2305;50.118;8.952;2023-02-26T02:46:44;2.57;;;1.60;;
4585;SDS011;2305;50.118;8.952;2023-02-26T02:49:20;4.63;;;1.60;;
4585;SDS011;2305;50.118;8.952;2023-02-26T02:51:53;3.77;;;1.40;;
4585;SDS011;2305;50.118;8.952;2023-02-26T02:54:23;5.37;;;1.40;;
4585;SDS011;2305;50.118;8.952;2023-02-26T02:57:00;4.70;;;1.50;;
4585;SDS011;2305;50.118;8.952;2023-02-26T02:59:36;4.77;;;2.40;;
4585;SDS011;2305;50.118;8.952;2023-02-26T03:02:10;2.40;;;1.40;;
4585;SDS011;2305;50.118;8.952;2023-02-26T03:04:45;2.40;;;1.37;;
4585;SDS011;2305;50.118;8.952;2023-02-26T03:07:16;4.10;;;1.30;;
4585;SDS011;2305;50.118;8.952;2023-02-26T03:09:45;5.60;;;1.63;;
4585;SDS011;2305;50.118;8.952;2023-02-26T03:12:13;7.73;;;1.30;;
4585;SDS011;2305;50.118;8.952;2023-02-26T03:14:42;1.80;;;1.40;;
4585;SDS011;2305;50.118;8.952;2023-02-26T03:17:16;2.77;;;1.20;;
4585;SDS011;2305;50.118;8.952;2023-02-26T03:19:59;2.87;;;1.50;;
4585;SDS011;2305;50.118;8.952;2023-02-26T03:22:38;4.57;;;1.10;;
4585;SDS011;2305;50.118;8.952;2023-02-26T03:25:20;1.90;;;1.10;;
4585;SDS011;2305;50.118;8.952;2023-02-26T03:27:56;3.93;;;1.67;;
4585;SDS011;2305;50.118;8.952;2023-02-26T03:30:34;2.87;;;1.77;;
4585;SDS011;2305;50.118;8.952;2023-02-26T03:33:09;2.90;;;1.10;;
4585;SDS011;2305;50.118;8.952;2023-02-26T03:35:43;2.07;;;1.30;;
4585;SDS011;2305;50.118;8.952;2023-02-26T03:38:18;1.80;;;0.97;;
4585;SDS011;2305;50.118;8.952;2023-02-26T03:40:56;2.23;;;1.17;;
4585;SDS011;2305;50.118;8.952;2023-02-26T03:43:32;1.63;;;0.80;;
4585;SDS011;2305;50.118;8.952;2023-02-26T03:46:08;3.80;;;1.10;;
4585;SDS011;2305;50.118;8.952;2023-02-26T03:48:45;1.10;;;1.00;;
4585;SDS011;2305;50.118;8.952;2023-02-26T03:51:18;6.00;;;0.87;;
4585;SDS011;2305;50.118;8.952;2023-02-26T03:53:48;6.10;;;1.03;;
4585;SDS011;2305;50.118;8.952;2023-02-26T03:56:24;3.57;;;1.03;;
4585;SDS011;2305;50.118;8.952;2023-02-26T03:59:04;0.90;;;0.83;;
4585;SDS011;2305;50.118;8.952;2023-02-26T04:01:55;1.73;;;0.83;;
4585;SDS011;2305;50.118;8.952;2023-02-26T04:04:31;2.73;;;0.90;;
4585;SDS011;2305;50.118;8.952;2023-02-26T04:07:10;2.70;;;0.93;;
4585;SDS011;2305;50.118;8.952;2023-02-26T04:09:40;2.17;;;1.20;;
4585;SDS011;2305;50.118;8.952;2023-02-26T04:12:09;6.83;;;1.13;;
4585;SDS011;2305;50.118;8.952;2023-02-26T04:14:42;1.63;;;1.53;;
4585;SDS011;2305;50.118;8.952;2023-02-26T04:17:11;0.97;;;0.87;;
4585;SDS011;2305;50.118;8.952;2023-02-26T04:19:41;5.03;;;1.63;;
4585;SDS011;2305;50.118;8.952;2023-02-26T04:22:09;2.43;;;1.07;;
4585;SDS011;2305;50.118;8.952;2023-02-26T04:24:38;6.00;;;1.17;;
4585;SDS011;2305;50.118;8.952;2023-02-26T04:27:06;2.73;;;1.23;;
4585;SDS011;2305;50.118;8.952;2023-02-26T04:29:34;1.07;;;0.90;;
4585;SDS011;2305;50.118;8.952;2023-02-26T04:32:03;1.87;;;1.10;;
4585;SDS011;2305;50.118;8.952;2023-02-26T04:34:31;1.60;;;1.10;;
4585;SDS011;2305;50.118;8.952;2023-02-26T04:37:00;2.50;;;1.10;;
4585;SDS011;2305;50.118;8.952;2023-02-26T04:39:31;2.50;;;1.03;;
4585;SDS011;2305;50.118;8.952;2023-02-26T04:41:59;2.67;;;1.20;;
4585;SDS011;2305;50.118;8.952;2023-02-26T04:44:28;4.00;;;1.17;;
4585;SDS011;2305;50.118;8.952;2023-02-26T04:46:59;2.23;;;1.10;;
4585;SDS011;2305;50.118;8.952;2023-02-26T04:49:27;4.80;;;1.70;;
4585;SDS011;2305;50.118;8.952;2023-02-26T04:51:55;4.00;;;1.10;;
4585;SDS011;2305;50.118;8.952;2023-02-26T04:54:25;10.33;;;1.30;;
4585;SDS011;2305;50.118;8.952;2023-02-26T04:56:53;2.97;;;1.00;;
4585;SDS011;2305;50.118;8.952;2023-02-26T04:59:23;1.77;;;1.03;;
4585;SDS011;2305;50.118;8.952;2023-02-26T05:01:51;1.73;;;0.90;;
4585;SDS011;2305;50.118;8.952;2023-02-26T05:04:19;1.97;;;1.17;;
4585;SDS011;2305;50.118;8.952;2023-02-26T05:06:52;1.37;;;1.23;;
4585;SDS011;2305;50.118;8.952;2023-02-26T05:09:21;2.60;;;1.30;;
4585;SDS011;2305;50.118;8.952;2023-02-26T05:11:51;2.57;;;1.30;;
4585;SDS011;2305;50.118;8.952;2023-02-26T05:14:19;1.67;;;1.27;;
4585;SDS011;2305;50.118;8.952;2023-02-26T05:16:47;2.63;;;1.30;;
4585;SDS011;2305;50.118;8.952;2023-02-26T05:19:15;4.27;;;1.20;;
4585;SDS011;2305;50.118;8.952;2023-02-26T05:21:47;3.27;;;1.40;;
4585;SDS011;2305;50.118;8.952;2023-02-26T05:24:20;3.77;;;1.40;;
4585;SDS011;2305;50.118;8.952;2023-02-26T05:26:48;5.80;;;1.60;;
4585;SDS011;2305;50.118;8.952;2023-02-26T05:29:18;4.03;;;1.50;;
4585;SDS011;2305;50.118;8.952;2023-02-26T05:31:46;2.23;;;1.40;;
4585;SDS011;2305;50.118;8.952;2023-02-26T05:34:14;3.07;;;1.40;;
4585;SDS011;2305;50.118;8.952;2023-02-26T05:36:42;5.90;;;1.43;;
4585;SDS011;2305;50.118;8.952;2023-02-26T05:39:11;2.60;;;1.40;;
4585;SDS011;2305;50.118;8.952;2023-02-26T05:41:39;1.80;;;1.50;;
4585;SDS011;2305;50.118;8.952;2023-02-26T05:44:09;7.00;;;1.30;;
4585;SDS011;2305;50.118;8.952;2023-02-26T05:46:36;2.50;;;1.47;;
4585;SDS011;2305;50.118;8.952;2023-02-26T05:49:04;4.00;;;1.50;;
4585;SDS011;2305;50.118;8.952;2023-02-26T05:51:32;3.77;;;1.63;;
4585;SDS011;2305;50.118;8.952;2023-02-26T05:54:00;4.67;;;1.77;;
4585;SDS011;2305;50.118;8.952;2023-02-26T05:56:28;3.27;;;1.67;;
4585;SDS011;2305;50.118;8.952;2023-02-26T05:58:58;1.33;;;1.23;;
4585;SDS011;2305;50.118;8.952;2023-02-26T06:01:27;11.17;;;2.27;;
4585;SDS011;2305;50.118;8.952;2023-02-26T06:03:55;2.87;;;1.30;;
4585;SDS011;2305;50.118;8.952;2023-02-26T06:06:29;4.40;;;1.70;;
4585;SDS011;2305;50.118;8.952;2023-02-26T06:09:00;5.90;;;2.03;;
4585;SDS011;2305;50.118;8.952;2023-02-26T06:11:28;2.70;;;1.30;;
4585;SDS011;2305;50.118;8.952;2023-02-26T06:13:59;1.17;;;1.07;;
4585;SDS011;2305;50.118;8.952;2023-02-26T06:16:29;2.40;;;1.80;;
4585;SDS011;2305;50.118;8.952;2023-02-26T06:19:00;4.30;;;1.40;;
4585;SDS011;2305;50.118;8.952;2023-02-26T06:21:28;2.40;;;1.27;;
4585;SDS011;2305;50.118;8.952;2023-02-26T06:23:56;5.13;;;1.20;;
4585;SDS011;2305;50.118;8.952;2023-02-26T06:26:24;4.30;;;1.70;;
4585;SDS011;2305;50.118;8.952;2023-02-26T06:28:53;2.70;;;1.60;;
4585;SDS011;2305;50.118;8.952;2023-02-26T06:31:21;4.10;;;1.77;;
4585;SDS011;2305;50.118;8.952;2023-02-26T06:33:50;3.30;;;1.63;;
4585;SDS011;2305;50.118;8.952;2023-02-26T06:36:18;4.93;;;1.87;;
4585;SDS011;2305;50.118;8.952;2023-02-26T06:38:48;4.13;;;1.70;;
4585;SDS011;2305;50.118;8.952;2023-02-26T06:41:18;3.10;;;1.87;;
4585;SDS011;2305;50.118;8.952;2023-02-26T06:43:46;6.13;;;1.70;;
4585;SDS011;2305;50.118;8.952;2023-02-26T06:46:14;1.90;;;1.37;;
4585;SDS011;2305;50.118;8.952;2023-02-26T06:48:43;1.87;;;1.30;;
4585;SDS011;2305;50.118;8.952;2023-02-26T06:51:12;1.23;;;1.10;;
4585;SDS011;2305;50.118;8.952;2023-02-26T06:53:40;1.50;;;1.40;;
4585;SDS011;2305;50.118;8.952;2023-02-26T06:56:09;4.27;;;1.93;;
4585;SDS011;2305;50.118;8.952;2023-02-26T06:58:39;4.23;;;1.80;;
4585;SDS011;2305;50.118;8.952;2023-02-26T07:01:07;6.03;;;1.60;;
4585;SDS011;2305;50.118;8.952;2023-02-26T07:03:35;3.10;;;1.30;;
4585;SDS011;2305;50.118;8.952;2023-02-26T07:06:04;2.33;;;1.50;;
4585;SDS011;2305;50.118;8.952;2023-02-26T07:08:53;4.00;;;1.47;;
4585;SDS011;2305;50.118;8.952;2023-02-26T07:11:22;1.23;;;1.13;;
4585;SDS011;2305;50.118;8.952;2023-02-26T07:13:51;4.10;;;1.50;;
4585;SDS011;2305;50.118;8.952;2023-02-26T07:16:19;1.83;;;1.43;;
4585;SDS011;2305;50.118;8.952;2023-02-26T07:18:47;1.77;;;1.27;;
4585;SDS011;2305;50.118;8.952;2023-02-26T07:21:15;4.70;;;1.60;;
4585;SDS011;2305;50.118;8.952;2023-02-26T07:23:45;2.60;;;1.50;;
4585;SDS011;2305;50.118;8.952;2023-02-26T07:26:17;1.97;;;1.60;;
4585;SDS011;2305;50.118;8.952;2023-02-26T07:28:45;6.30;;;1.83;;
4585;SDS011;2305;50.118;8.952;2023-02-26T07:31:13;4.80;;;1.63;;
4585;SDS011;2305;50.118;8.952;2023-02-26T07:33:42;2.73;;;1.30;;
4585;SDS011;2305;50.118;8.952;2023-02-26T07:36:10;3.47;;;1.47;;
4585;SDS011;2305;50.118;8.952;2023-02-26T07:38:37;4.37;;;1.87;;
4585;SDS011;2305;50.118;8.952;2023-02-26T07:41:05;6.80;;;1.40;;
4585;SDS011;2305;50.118;8.952;2023-02-26T07:43:35;5.83;;;2.07;;
4585;SDS011;2305;50.118;8.952;2023-02-26T07:46:06;2.80;;;1.40;;
4585;SDS011;2305;50.118;8.952;2023-02-26T07:48:34;4.00;;;1.87;;
4585;SDS011;2305;50.118;8.952;2023-02-26T07:51:03;2.83;;;1.70;;
4585;SDS011;2305;50.118;8.952;2023-02-26T07:53:33;2.70;;;1.60;;
4585;SDS011;2305;50.118;8.952;2023-02-26T07:56:02;2.40;;;1.43;;
4585;SDS011;2305;50.118;8.952;2023-02-26T07:58:31;4.70;;;1.60;;
4585;SDS011;2305;50.118;8.952;2023-02-26T08:01:02;1.73;;;1.20;;
4585;SDS011;2305;50.118;8.952;2023-02-26T08:03:30;1.80;;;1.33;;
4585;SDS011;2305;50.118;8.952;2023-02-26T08:05:58;1.77;;;1.20;;
4585;SDS011;2305;50.118;8.952;2023-02-26T08:08:26;5.53;;;1.70;;
4585;SDS011;2305;50.118;8.952;2023-02-26T08:10:54;2.73;;;1.83;;
4585;SDS011;2305;50.118;8.952;2023-02-26T08:13:22;2.47;;;1.60;;
4585;SDS011;2305;50.118;8.952;2023-02-26T08:15:50;4.97;;;1.40;;
4585;SDS011;2305;50.118;8.952;2023-02-26T08:18:20;2.33;;;1.57;;
4585;SDS011;2305;50.118;8.952;2023-02-26T08:20:49;1.70;;;1.27;;
4585;SDS011;2305;50.118;8.952;2023-02-26T08:23:18;4.23;;;1.40;;
4585;SDS011;2305;50.118;8.952;2023-02-26T08:25:48;2.03;;;1.20;;
4585;SDS011;2305;50.118;8.952;2023-02-26T08:28:17;2.93;;;1.07;;
4585;SDS011;2305;50.118;8.952;2023-02-26T08:30:45;1.30;;;0.90;;
4585;SDS011;2305;50.118;8.952;2023-02-26T08:33:13;2.97;;;1.20;;
4585;SDS011;2305;50.118;8.952;2023-02-26T08:35:42;1.60;;;1.20;;
4585;SDS011;2305;50.118;8.952;2023-02-26T08:38:10;1.67;;;1.33;;
4585;SDS011;2305;50.118;8.952;2023-02-26T08:40:38;2.03;;;1.20;;
4585;SDS011;2305;50.118;8.952;2023-02-26T08:43:06;2.47;;;0.87;;
4585;SDS011;2305;50.118;8.952;2023-02-26T08:45:34;1.73;;;1.10;;
4585;SDS011;2305;50.118;8.952;2023-02-26T08:48:02;1.90;;;1.43;;
4585;SDS011;2305;50.118;8.952;2023-02-26T08:50:31;1.10;;;1.00;;
4585;SDS011;2305;50.118;8.952;2023-02-26T08:53:03;1.00;;;0.87;;
4585;SDS011;2305;50.118;8.952;2023-02-26T08:55:31;2.30;;;1.30;;
4585;SDS011;2305;50.118;8.952;2023-02-26T08:57:59;1.83;;;1.20;;
4585;SDS011;2305;50.118;8.952;2023-02-26T09:00:27;3.13;;;1.33;;
4585;SDS011;2305;50.118;8.952;2023-02-26T09:02:58;2.67;;;1.43;;
4585;SDS011;2305;50.118;8.952;2023-02-26T09:05:26;2.57;;;1.13;;
4585;SDS011;2305;50.118;8.952;2023-02-26T09:07:54;3.40;;;1.40;;
4585;SDS011;2305;50.118;8.952;2023-02-26T09:10:24;2.07;;;1.37;;
4585;SDS011;2305;50.118;8.952;2023-02-26T09:12:54;2.23;;;0.90;;
4585;SDS011;2305;50.118;8.952;2023-02-26T09:15:22;3.03;;;1.40;;
4585;SDS011;2305;50.118;8.952;2023-02-26T09:17:50;1.20;;;1.10;;
4585;SDS011;2305;50.118;8.952;2023-02-26T09:20:20;1.20;;;1.10;;
4585;SDS011;2305;50.118;8.952;2023-02-26T09:22:48;5.50;;;1.17;;
4585;SDS011;2305;50.118;8.952;2023-02-26T09:25:16;0.93;;;0.80;;
4585;SDS011;2305;50.118;8.952;2023-02-26T09:27:46;3.27;;;1.13;;
4585;SDS011;2305;50.118;8.952;2023-02-26T09:30:15;1.53;;;1.10;;
4585;SDS011;2305;50.118;8.952;2023-02-26T09:32:43;1.70;;;1.20;;
4585;SDS011;2305;50.118;8.952;2023-02-26T09:35:11;4.43;;;1.00;;
4585;SDS011;2305;50.118;8.952;2023-02-26T09:37:39;1.33;;;1.07;;
4585;SDS011;2305;50.118;8.952;2023-02-26T09:40:09;3.47;;;1.20;;
4585;SDS011;2305;50.118;8.952;2023-02-26T09:42:56;4.73;;;1.30;;
4585;SDS011;2305;50.118;8.952;2023-02-26T09:45:33;2.23;;;1.50;;
4585;SDS011;2305;50.118;8.952;2023-02-26T09:48:06;2.73;;;1.30;;
4585;SDS011;2305;50.118;8.952;2023-02-26T09:50:37;2.30;;;1.00;;
4585;SDS011;2305;50.118;8.952;2023-02-26T09:53:11;1.97;;;1.50;;
4585;SDS011;2305;50.118;8.952;2023-02-26T09:55:48;2.17;;;1.00;;
4585;SDS011;2305;50.118;8.952;2023-02-26T09:58:21;4.47;;;1.30;;
4585;SDS011;2305;50.118;8.952;2023-02-26T10:00:56;2.30;;;1.00;;
4585;SDS011;2305;50.118;8.952;2023-02-26T10:03:31;0.80;;;0.80;;
4585;SDS011;2305;50.118;8.952;2023-02-26T10:06:16;1.97;;;1.30;;
4585;SDS011;2305;50.118;8.952;2023-02-26T10:08:51;6.20;;;1.10;;
4585;SDS011;2305;50.118;8.952;2023-02-26T10:11:34;1.87;;;1.00;;
4585;SDS011;2305;50.118;8.952;2023-02-26T10:14:10;1.60;;;1.20;;
4585;SDS011;2305;50.118;8.952;2023-02-26T10:16:45;1.70;;;1.13;;
4585;SDS011;2305;50.118;8.952;2023-02-26T10:19:18;3.00;;;1.50;;
4585;SDS011;2305;50.118;8.952;2023-02-26T10:21:51;1.77;;;1.23;;
4585;SDS011;2305;50.118;8.952;2023-02-26T10:24:43;3.10;;;1.20;;
4585;SDS011;2305;50.118;8.952;2023-02-26T10:27:17;1.13;;;0.93;;
4585;SDS011;2305;50.118;8.952;2023-02-26T10:29:52;4.00;;;1.07;;
4585;SDS011;2305;50.118;8.952;2023-02-26T10:32:27;2.30;;;1.10;;
4585;SDS011;2305;50.118;8.952;2023-02-26T10:35:03;1.73;;;0.87;;
4585;SDS011;2305;50.118;8.952;2023-02-26T10:37:38;3.27;;;1.00;;
4585;SDS011;2305;50.118;8.952;2023-02-26T10:40:13;1.50;;;1.30;;
4585;SDS011;2305;50.118;8.952;2023-02-26T10:42:45;2.63;;;1.00;;
4585;SDS011;2305;50.118;8.952;2023-02-26T10:45:23;2.43;;;1.20;;
4585;SDS011;2305;50.118;8.952;2023-02-26T10:48:00;1.53;;;1.03;;
4585;SDS011;2305;50.118;8.952;2023-02-26T10:50:41;2.27;;;1.10;;
4585;SDS011;2305;50.118;8.952;2023-02-26T10:53:15;3.37;;;1.30;;
4585;SDS011;2305;50.118;8.952;2023-02-26T10:55:43;1.60;;;0.93;;
4585;SDS011;2305;50.118;8.952;2023-02-26T10:58:17;2.80;;;1.07;;
4585;SDS011;2305;50.118;8.952;2023-02-26T11:00:53;2.27;;;1.30;;
4585;SDS011;2305;50.118;8.952;2023-02-26T11:03:28;2.20;;;1.10;;
4585;SDS011;2305;50.118;8.952;2023-02-26T11:05:59;2.00;;;1.00;;
4585;SDS011;2305;50.118;8.952;2023-02-26T11:08:29;2.40;;;1.37;;
4585;SDS011;2305;50.118;8.952;2023-02-26T11:10:59;1.60;;;0.97;;
4585;SDS011;2305;50.118;8.952;2023-02-26T11:13:31;2.73;;;1.50;;
4585;SDS011;2305;50.118;8.952;2023-02-26T11:16:09;1.97;;;1.37;;
4585;SDS011;2305;50.118;8.952;2023-02-26T11:18:44;1.50;;;1.00;;
4585;SDS011;2305;50.118;8.952;2023-02-26T11:21:18;1.73;;;1.00;;
4585;SDS011;2305;50.118;8.952;2023-02-26T11:23:53;2.10;;;0.90;;
4585;SDS011;2305;50.118;8.952;2023-02-26T11:26:31;2.47;;;1.43;;
4585;SDS011;2305;50.118;8.952;2023-02-26T11:29:03;1.03;;;0.90;;
4585;SDS011;2305;50.118;8.952;2023-02-26T11:31:35;4.40;;;1.20;;
4585;SDS011;2305;50.118;8.952;2023-02-26T11:34:08;31.37;;;4.00;;
4585;SDS011;2305;50.118;8.952;2023-02-26T11:36:39;8.13;;;2.17;;
4585;SDS011;2305;50.118;8.952;2023-02-26T11:39:13;1.33;;;1.20;;
4585;SDS011;2305;50.118;8.952;2023-02-26T11:41:45;2.10;;;1.10;;
4585;SDS011;2305;50.118;8.952;2023-02-26T11:44:16;1.57;;;0.70;;
4585;SDS011;2305;50.118;8.952;2023-02-26T11:46:50;1.10;;;0.80;;
4585;SDS011;2305;50.118;8.952;2023-02-26T11:49:20;1.20;;;0.90;;
4585;SDS011;2305;50.118;8.952;2023-02-26T11:52:00;2.07;;;0.93;;
4585;SDS011;2305;50.118;8.952;2023-02-26T11:54:34;1.00;;;0.90;;
4585;SDS011;2305;50.118;8.952;2023-02-26T11:57:04;1.03;;;0.70;;
4585;SDS011;2305;50.118;8.952;2023-02-26T11:59:36;1.53;;;0.97;;
4585;SDS011;2305;50.118;8.952;2023-02-26T12:02:10;1.60;;;1.00;;
4585;SDS011;2305;50.118;8.952;2023-02-26T12:04:42;3.00;;;1.10;;
4585;SDS011;2305;50.118;8.952;2023-02-26T12:07:11;0.93;;;0.83;;
4585;SDS011;2305;50.118;8.952;2023-02-26T12:09:44;1.40;;;0.97;;
4585;SDS011;2305;50.118;8.952;2023-02-26T12:12:26;1.03;;;0.80;;
4585;SDS011;2305;50.118;8.952;2023-02-26T12:15:13;1.60;;;0.90;;
4585;SDS011;2305;50.118;8.952;2023-02-26T12:17:58;0.93;;;0.83;;
4585;SDS011;2305;50.118;8.952;2023-02-26T12:20:39;4.63;;;1.03;;
4585;SDS011;2305;50.118;8.952;2023-02-26T12:23:22;2.70;;;1.23;;
4585;SDS011;2305;50.118;8.952;2023-02-26T12:29:02;4.10;;;1.33;;
4585;SDS011;2305;50.118;8.952;2023-02-26T12:31:52;1.50;;;1.20;;
4585;SDS011;2305;50.118;8.952;2023-02-26T12:34:36;1.60;;;1.00;;
4585;SDS011;2305;50.118;8.952;2023-02-26T12:37:26;7.13;;;3.70;;
4585;SDS011;2305;50.118;8.952;2023-02-26T12:40:10;1.93;;;1.07;;
4585;SDS011;2305;50.118;8.952;2023-02-26T12:42:57;1.20;;;0.90;;
4585;SDS011;2305;50.118;8.952;2023-02-26T12:45:39;2.90;;;1.23;;
4585;SDS011;2305;50.118;8.952;2023-02-26T12:48:36;1.07;;;0.90;;
4585;SDS011;2305;50.118;8.952;2023-02-26T12:51:26;1.77;;;1.03;;
4585;SDS011;2305;50.118;8.952;2023-02-26T12:54:10;1.07;;;0.83;;
4585;SDS011;2305;50.118;8.952;2023-02-26T12:56:58;1.20;;;0.97;;
4585;SDS011;2305;50.118;8.952;2023-02-26T12:59:53;1.43;;;0.83;;
4585;SDS011;2305;50.118;8.952;2023-02-26T13:08:54;1.13;;;0.77;;
4585;SDS011;2305;50.118;8.952;2023-02-26T13:11:39;1.00;;;0.73;;
4585;SDS011;2305;50.118;8.952;2023-02-26T13:14:23;1.00;;;0.90;;
4585;SDS011;2305;50.118;8.952;2023-02-26T13:17:03;2.53;;;0.90;;
4585;SDS011;2305;50.118;8.952;2023-02-26T13:19:40;1.20;;;0.90;;
4585;SDS011;2305;50.118;8.952;2023-02-26T13:22:15;1.20;;;0.93;;
4585;SDS011;2305;50.118;8.952;2023-02-26T13:24:51;1.60;;;0.90;;
4585;SDS011;2305;50.118;8.952;2023-02-26T13:27:26;1.60;;;1.00;;
4585;SDS011;2305;50.118;8.952;2023-02-26T13:30:05;1.00;;;0.90;;
4585;SDS011;2305;50.118;8.952;2023-02-26T13:32:45;1.70;;;1.00;;
4585;SDS011;2305;50.118;8.952;2023-02-26T13:35:18;1.50;;;0.90;;
4585;SDS011;2305;50.118;8.952;2023-02-26T13:37:53;2.40;;;0.90;;
4585;SDS011;2305;50.118;8.952;2023-02-26T13:43:28;0.97;;;0.70;;
4585;SDS011;2305;50.118;8.952;2023-02-26T13:48:56;1.87;;;0.80;;
4585;SDS011;2305;50.118;8.952;2023-02-26T13:51:30;1.73;;;0.87;;
4585;SDS011;2305;50.118;8.952;2023-02-26T13:54:07;2.03;;;0.90;;
4585;SDS011;2305;50.118;8.952;2023-02-26T13:57:04;0.90;;;0.80;;
4585;SDS011;2305;50.118;8.952;2023-02-26T13:59:36;1.40;;;0.80;;
4585;SDS011;2305;50.118;8.952;2023-02-26T14:08:38;1.00;;;0.80;;
4585;SDS011;2305;50.118;8.952;2023-02-26T14:14:15;1.53;;;0.90;;
4585;SDS011;2305;50.118;8.952;2023-02-26T14:20:13;1.93;;;0.70;;
4585;SDS011;2305;50.118;8.952;2023-02-26T14:22:50;2.83;;;1.23;;
4585;SDS011;2305;50.118;8.952;2023-02-26T14:25:26;1.00;;;0.80;;
4585;SDS011;2305;50.118;8.952;2023-02-26T14:31:18;1.27;;;0.93;;
4585;SDS011;2305;50.118;8.952;2023-02-26T14:33:57;1.30;;;0.93;;
4585;SDS011;2305;50.118;8.952;2023-02-26T14:36:34;2.50;;;0.93;;
4585;SDS011;2305;50.118;8.952;2023-02-26T14:39:06;0.70;;;0.67;;
4585;SDS011;2305;50.118;8.952;2023-02-26T14:41:43;1.20;;;0.90;;
4585;SDS011;2305;50.118;8.952;2023-02-26T14:44:13;1.97;;;1.00;;
4585;SDS011;2305;50.118;8.952;2023-02-26T14:46:47;1.20;;;0.90;;
4585;SDS011;2305;50.118;8.952;2023-02-26T14:49:25;1.20;;;1.00;;
4585;SDS011;2305;50.118;8.952;2023-02-26T14:52:04;1.20;;;0.90;;
4585;SDS011;2305;50.118;8.952;2023-02-26T14:54:51;1.47;;;1.00;;
4585;SDS011;2305;50.118;8.952;2023-02-26T14:57:30;1.73;;;1.03;;
4585;SDS011;2305;50.118;8.952;2023-02-26T15:00:12;2.20;;;0.93;;
4585;SDS011;2305;50.118;8.952;2023-02-26T15:02:55;1.30;;;0.90;;
4585;SDS011;2305;50.118;8.952;2023-02-26T15:05:52;0.80;;;0.70;;
4585;SDS011;2305;50.118;8.952;2023-02-26T15:08:34;3.50;;;0.97;;
4585;SDS011;2305;50.118;8.952;2023-02-26T15:11:14;0.90;;;0.80;;
4585;SDS011;2305;50.118;8.952;2023-02-26T15:13:59;1.00;;;0.80;;
4585;SDS011;2305;50.118;8.952;2023-02-26T15:16:39;1.20;;;0.90;;
4585;SDS011;2305;50.118;8.952;2023-02-26T15:19:26;1.20;;;0.80;;
4585;SDS011;2305;50.118;8.952;2023-02-26T15:22:11;1.03;;;0.63;;
4585;SDS011;2305;50.118;8.952;2023-02-26T15:24:53;2.30;;;0.80;;
4585;SDS011;2305;50.118;8.952;2023-02-26T15:27:22;1.57;;;0.90;;
4585;SDS011;2305;50.118;8.952;2023-02-26T15:29:51;1.10;;;0.90;;
4585;SDS011;2305;50.118;8.952;2023-02-26T15:32:23;1.57;;;0.90;;
4585;SDS011;2305;50.118;8.952;2023-02-26T15:34:56;1.43;;;0.90;;
4585;SDS011;2305;50.118;8.952;2023-02-26T15:37:27;1.50;;;0.80;;
4585;SDS011;2305;50.118;8.952;2023-02-26T15:39:59;1.97;;;0.80;;
4585;SDS011;2305;50.118;8.952;2023-02-26T15:42:30;1.60;;;1.10;;
4585;SDS011;2305;50.118;8.952;2023-02-26T15:45:05;0.90;;;0.70;;
4585;SDS011;2305;50.118;8.952;2023-02-26T15:47:39;1.77;;;1.30;;
4585;SDS011;2305;50.118;8.952;2023-02-26T15:50:12;2.50;;;0.90;;
4585;SDS011;2305;50.118;8.952;2023-02-26T15:52:44;1.67;;;0.80;;
4585;SDS011;2305;50.118;8.952;2023-02-26T15:55:19;0.80;;;0.70;;
4585;SDS011;2305;50.118;8.952;2023-02-26T15:57:48;1.37;;;0.87;;
4585;SDS011;2305;50.118;8.952;2023-02-26T16:00:17;1.23;;;0.90;;
4585;SDS011;2305;50.118;8.952;2023-02-26T16:02:50;1.43;;;0.80;;
4585;SDS011;2305;50.118;8.952;2023-02-26T16:05:26;3.70;;;0.80;;
4585;SDS011;2305;50.118;8.952;2023-02-26T16:07:55;1.97;;;0.97;;
4585;SDS011;2305;50.118;8.952;2023-02-26T16:10:27;4.20;;;0.80;;
4585;SDS011;2305;50.118;8.952;2023-02-26T16:12:59;1.17;;;0.80;;
4585;SDS011;2305;50.118;8.952;2023-02-26T16:15:29;0.80;;;0.70;;
4585;SDS011;2305;50.118;8.952;2023-02-26T16:18:04;1.90;;;0.93;;
4585;SDS011;2305;50.118;8.952;2023-02-26T16:20:37;2.10;;;1.03;;
4585;SDS011;2305;50.118;8.952;2023-02-26T16:23:09;1.03;;;0.80;;
4585;SDS011;2305;50.118;8.952;2023-02-26T16:25:43;1.10;;;0.80;;
4585;SDS011;2305;50.118;8.952;2023-02-26T16:28:18;1.53;;;0.87;;